createdAt,value
2022-12-03T00:00:13.160Z,86.56
2022-12-03T00:01:11.066Z,86.63
2022-12-03T00:02:11.165Z,86.67
2022-12-03T00:03:11.159Z,86.77
2022-12-03T00:04:11.178Z,86.77
2022-12-03T00:05:11.064Z,86.57
2022-12-03T00:06:11.061Z,86.67
2022-12-03T00:07:11.071Z,86.88
2022-12-03T00:08:11.151Z,86.87
2022-12-03T00:09:11.060Z,87.15
2022-12-03T00:10:11.067Z,87.23
2022-12-03T00:11:11.062Z,87.28
2022-12-03T00:12:11.063Z,87.28
2022-12-03T00:13:11.067Z,87.26
2022-12-03T00:14:11.064Z,87.21
2022-12-03T00:15:11.057Z,87.46
2022-12-03T00:16:11.104Z,87.28
2022-12-03T00:17:11.069Z,87.30
2022-12-03T00:18:11.057Z,87.17
2022-12-03T00:19:11.064Z,87.24
2022-12-03T00:20:11.063Z,87.25
2022-12-03T00:21:11.061Z,87.07
2022-12-03T00:22:12.831Z,87.03
2022-12-03T00:23:11.062Z,87.04
2022-12-03T00:24:11.063Z,86.98
2022-12-03T00:25:11.062Z,86.92
2022-12-03T00:26:11.065Z,87.19
2022-12-03T00:27:11.060Z,87.28
2022-12-03T00:28:11.062Z,87.19
2022-12-03T00:29:11.063Z,87.18
2022-12-03T00:30:11.062Z,87.06
2022-12-03T00:31:11.104Z,87.02
2022-12-03T00:32:11.064Z,86.89
2022-12-03T00:33:11.066Z,86.92
2022-12-03T00:34:11.061Z,86.81
2022-12-03T00:35:11.064Z,86.80
2022-12-03T00:36:11.066Z,86.75
2022-12-03T00:37:11.062Z,86.64
2022-12-03T00:38:11.071Z,86.73
2022-12-03T00:39:11.060Z,86.63
2022-12-03T00:40:11.061Z,86.68
2022-12-03T00:41:11.070Z,86.60
2022-12-03T00:42:11.061Z,86.50
2022-12-03T00:43:11.065Z,86.51
2022-12-03T00:44:11.083Z,86.40
2022-12-03T00:45:11.060Z,86.49
2022-12-03T00:46:11.102Z,86.29
2022-12-03T00:47:11.154Z,86.20
2022-12-03T00:48:11.063Z,86.20
2022-12-03T00:49:11.062Z,86.06
2022-12-03T00:50:11.073Z,86.11
2022-12-03T00:51:11.060Z,86.09
2022-12-03T00:52:11.063Z,86.21
2022-12-03T00:53:11.072Z,86.16
2022-12-03T00:54:11.061Z,86.02
2022-12-03T00:55:11.065Z,86.08
2022-12-03T00:56:11.070Z,86.10
2022-12-03T00:57:11.064Z,85.95
2022-12-03T00:58:12.071Z,86.02
2022-12-03T00:59:11.070Z,85.96
2022-12-03T01:00:11.064Z,85.97
2022-12-03T01:01:11.061Z,85.96
2022-12-03T01:02:11.139Z,86.08
2022-12-03T01:03:11.069Z,85.90
2022-12-03T01:04:11.155Z,86.12
2022-12-03T01:05:11.128Z,85.92
2022-12-03T01:06:11.068Z,85.98
2022-12-03T01:07:11.064Z,86.02
2022-12-03T01:08:11.121Z,86.12
2022-12-03T01:09:11.065Z,86.21
2022-12-03T01:10:11.063Z,86.25
2022-12-03T01:11:15.062Z,86.19
2022-12-03T01:12:11.068Z,86.21
2022-12-03T01:13:11.066Z,86.26
2022-12-03T01:14:12.065Z,86.22
2022-12-03T01:15:11.073Z,86.32
2022-12-03T01:16:11.089Z,86.37
2022-12-03T01:17:11.062Z,86.24
2022-12-03T01:18:11.065Z,86.17
2022-12-03T01:19:11.070Z,86.13
2022-12-03T01:20:11.062Z,86.31
2022-12-03T01:21:11.066Z,86.28
2022-12-03T01:22:11.071Z,86.44
2022-12-03T01:23:11.062Z,86.31
2022-12-03T01:24:11.067Z,86.31
2022-12-03T01:25:11.072Z,86.38
2022-12-03T01:26:11.068Z,86.29
2022-12-03T01:27:11.068Z,86.19
2022-12-03T01:28:11.078Z,86.16
2022-12-03T01:29:11.068Z,86.20
2022-12-03T01:30:11.062Z,86.10
2022-12-03T01:31:15.164Z,86.13
2022-12-03T01:32:15.066Z,86.08
2022-12-03T01:34:11.065Z,85.88
2022-12-03T01:35:11.069Z,85.87
2022-12-03T01:36:11.062Z,85.83
2022-12-03T01:37:11.066Z,85.96
2022-12-03T01:38:11.073Z,85.95
2022-12-03T01:39:11.064Z,85.86
2022-12-03T01:40:12.067Z,85.90
2022-12-03T01:41:12.034Z,85.91
2022-12-03T01:42:15.063Z,86.04
2022-12-03T01:43:11.069Z,86.05
2022-12-03T01:44:19.068Z,86.01
2022-12-03T01:45:19.065Z,86.05
2022-12-03T01:46:13.166Z,85.97
2022-12-03T01:47:17.065Z,85.89
2022-12-03T01:48:13.074Z,85.88
2022-12-03T01:49:19.086Z,86.03
2022-12-03T01:50:17.063Z,85.96
2022-12-03T01:51:11.066Z,85.94
2022-12-03T01:52:15.068Z,85.94
2022-12-03T01:53:11.066Z,85.98
2022-12-03T01:54:19.067Z,85.94
2022-12-03T01:55:16.072Z,85.88
2022-12-03T01:56:14.068Z,85.97
2022-12-03T01:57:19.069Z,86.05
2022-12-03T01:58:12.063Z,85.98
2022-12-03T01:59:13.069Z,85.88
2022-12-03T02:00:14.069Z,85.91
2022-12-03T02:01:14.252Z,86.12
2022-12-03T02:02:18.118Z,85.96
2022-12-03T02:03:17.081Z,85.96
2022-12-03T02:04:15.218Z,85.87
2022-12-03T02:05:21.069Z,85.82
2022-12-03T02:06:16.067Z,85.80
2022-12-03T02:07:17.075Z,85.67
2022-12-03T02:08:19.069Z,85.80
2022-12-03T02:09:14.066Z,85.64
2022-12-03T02:10:11.072Z,85.55
2022-12-03T02:11:19.076Z,85.63
2022-12-03T02:12:11.051Z,85.61
2022-12-03T02:13:11.051Z,85.63
2022-12-03T02:14:14.051Z,85.50
2022-12-03T02:15:11.049Z,85.52
2022-12-03T02:16:11.086Z,85.52
2022-12-03T02:17:11.048Z,85.44
2022-12-03T02:18:11.057Z,85.45
2022-12-03T02:19:19.049Z,85.32
2022-12-03T02:20:11.048Z,85.38
2022-12-03T02:21:21.056Z,85.39
2022-12-03T02:22:19.065Z,85.29
2022-12-03T02:23:19.053Z,85.17
2022-12-03T02:24:19.050Z,85.11
2022-12-03T02:25:15.052Z,85.16
2022-12-03T02:26:11.054Z,85.16
2022-12-03T02:27:11.055Z,85.18
2022-12-03T02:28:11.051Z,85.00
2022-12-03T02:29:11.051Z,85.00
2022-12-03T02:30:12.050Z,84.90
2022-12-03T02:31:11.119Z,84.90
2022-12-03T02:32:11.048Z,84.83
2022-12-03T02:33:11.051Z,84.92
2022-12-03T02:34:11.047Z,84.83
2022-12-03T02:35:17.049Z,84.69
2022-12-03T02:36:11.059Z,84.79
2022-12-03T02:37:15.049Z,84.73
2022-12-03T02:38:19.052Z,84.67
2022-12-03T02:39:11.050Z,84.54
2022-12-03T02:40:13.053Z,84.54
2022-12-03T02:41:13.049Z,84.44
2022-12-03T02:42:15.051Z,84.47
2022-12-03T02:43:11.058Z,84.40
2022-12-03T02:44:11.050Z,84.35
2022-12-03T02:45:18.049Z,84.22
2022-12-03T02:46:11.165Z,84.40
2022-12-03T02:47:11.131Z,84.31
2022-12-03T02:48:16.047Z,84.11
2022-12-03T02:49:11.050Z,84.27
2022-12-03T02:50:11.065Z,84.11
2022-12-03T02:51:11.065Z,84.20
2022-12-03T02:52:11.050Z,84.22
2022-12-03T02:53:17.055Z,84.13
2022-12-03T02:54:11.052Z,84.02
2022-12-03T02:55:11.048Z,83.85
2022-12-03T02:56:15.059Z,83.99
2022-12-03T02:57:11.051Z,83.87
2022-12-03T02:58:11.050Z,83.75
2022-12-03T02:59:11.052Z,83.70
2022-12-03T03:00:11.052Z,83.58
2022-12-03T03:01:11.203Z,83.49
2022-12-03T03:02:11.143Z,83.31
2022-12-03T03:03:11.054Z,83.16
2022-12-03T03:04:11.054Z,83.03
2022-12-03T03:05:11.053Z,83.17
2022-12-03T03:06:11.051Z,83.15
2022-12-03T03:07:11.052Z,83.04
2022-12-03T03:08:11.165Z,83.02
2022-12-03T03:09:11.053Z,82.91
2022-12-03T03:10:12.052Z,82.86
2022-12-03T03:11:11.052Z,82.63
2022-12-03T03:12:11.054Z,82.68
2022-12-03T03:13:15.050Z,82.49
2022-12-03T03:14:11.052Z,82.63
2022-12-03T03:15:11.059Z,82.53
2022-12-03T03:16:11.120Z,82.47
2022-12-03T03:17:11.049Z,82.48
2022-12-03T03:18:11.054Z,82.36
2022-12-03T03:19:11.052Z,82.33
2022-12-03T03:20:11.054Z,82.39
2022-12-03T03:21:11.059Z,82.40
2022-12-03T03:22:11.052Z,82.36
2022-12-03T03:23:17.049Z,82.30
2022-12-03T03:24:11.051Z,82.23
2022-12-03T03:25:15.056Z,82.07
2022-12-03T03:26:12.050Z,82.05
2022-12-03T03:27:11.057Z,81.93
2022-12-03T03:28:11.060Z,82.06
2022-12-03T03:29:11.054Z,81.99
2022-12-03T03:30:11.058Z,81.84
2022-12-03T03:31:11.124Z,81.88
2022-12-03T03:32:11.158Z,81.71
2022-12-03T03:33:11.050Z,81.78
2022-12-03T03:34:11.056Z,81.79
2022-12-03T03:35:11.054Z,81.70
2022-12-03T03:36:11.053Z,81.73
2022-12-03T03:37:11.053Z,81.72
2022-12-03T03:38:11.054Z,81.65
2022-12-03T03:39:11.053Z,81.62
2022-12-03T03:40:11.053Z,81.49
2022-12-03T03:41:11.053Z,81.54
2022-12-03T03:42:11.053Z,81.44
2022-12-03T03:43:11.054Z,81.53
2022-12-03T03:44:11.054Z,81.35
2022-12-03T03:45:11.054Z,81.51
2022-12-03T03:46:11.117Z,81.46
2022-12-03T03:47:11.055Z,81.28
2022-12-03T03:48:11.057Z,81.33
2022-12-03T03:49:11.054Z,81.33
2022-12-03T03:50:11.056Z,81.24
2022-12-03T03:51:13.054Z,81.16
2022-12-03T03:52:11.053Z,81.21
2022-12-03T03:53:11.062Z,81.29
2022-12-03T03:54:11.054Z,81.31
2022-12-03T03:55:12.054Z,81.44
2022-12-03T03:56:11.064Z,81.67
2022-12-03T03:57:11.057Z,81.68
2022-12-03T03:58:11.051Z,81.86
2022-12-03T03:59:11.057Z,81.95
2022-12-03T04:00:11.055Z,82.09
2022-12-03T04:01:11.116Z,82.11
2022-12-03T04:02:17.063Z,82.10
2022-12-03T04:03:11.059Z,82.17
2022-12-03T04:04:18.159Z,82.23
2022-12-03T04:05:17.058Z,82.36
2022-12-03T04:06:11.064Z,82.42
2022-12-03T04:07:11.056Z,82.82
2022-12-03T04:08:11.145Z,82.95
2022-12-03T04:09:11.057Z,83.06
2022-12-03T04:10:15.061Z,83.02
2022-12-03T04:11:15.057Z,83.13
2022-12-03T04:12:15.055Z,83.31
2022-12-03T04:13:11.063Z,83.29
2022-12-03T04:14:11.057Z,83.23
2022-12-03T04:15:11.052Z,83.23
2022-12-03T04:16:11.101Z,83.30
2022-12-03T04:17:11.058Z,83.29
2022-12-03T04:18:15.052Z,83.39
2022-12-03T04:19:11.056Z,83.40
2022-12-03T04:20:11.057Z,83.39
2022-12-03T04:21:18.070Z,83.38
2022-12-03T04:22:15.060Z,83.27
2022-12-03T04:23:11.055Z,83.45
2022-12-03T04:24:11.058Z,83.43
2022-12-03T04:25:15.053Z,83.46
2022-12-03T04:26:15.056Z,83.59
2022-12-03T04:27:15.065Z,83.57
2022-12-03T04:28:15.058Z,83.61
2022-12-03T04:29:11.056Z,83.58
2022-12-03T04:30:11.060Z,83.57
2022-12-03T04:31:15.112Z,83.72
2022-12-03T04:32:15.056Z,83.86
2022-12-03T04:33:15.060Z,83.86
2022-12-03T04:34:15.059Z,83.99
2022-12-03T04:35:15.102Z,84.00
2022-12-03T04:36:11.056Z,83.98
2022-12-03T04:37:11.061Z,84.05
2022-12-03T04:38:11.065Z,84.18
2022-12-03T04:39:11.059Z,84.07
2022-12-03T04:40:15.059Z,84.11
2022-12-03T04:41:11.061Z,84.01
2022-12-03T04:42:11.057Z,83.94
2022-12-03T04:43:11.056Z,84.06
2022-12-03T04:44:15.063Z,84.04
2022-12-03T04:45:11.060Z,84.05
2022-12-03T04:46:11.159Z,84.07
2022-12-03T04:47:14.060Z,84.17
2022-12-03T04:48:11.065Z,84.13
2022-12-03T04:49:11.056Z,84.36
2022-12-03T04:50:11.060Z,84.33
2022-12-03T04:51:11.065Z,84.44
2022-12-03T04:52:11.056Z,84.55
2022-12-03T04:53:11.060Z,84.74
2022-12-03T04:54:11.074Z,84.70
2022-12-03T04:55:11.058Z,84.90
2022-12-03T04:56:11.055Z,85.07
2022-12-03T04:57:11.064Z,85.33
2022-12-03T04:58:11.064Z,85.33
2022-12-03T04:59:16.303Z,85.65
2022-12-03T05:00:11.058Z,85.81
2022-12-03T05:01:11.077Z,85.76
2022-12-03T05:02:11.096Z,85.72
2022-12-03T05:03:11.058Z,85.73
2022-12-03T05:04:11.066Z,85.80
2022-12-03T05:05:11.058Z,85.74
2022-12-03T05:06:11.058Z,85.89
2022-12-03T05:07:11.066Z,86.06
2022-12-03T05:08:11.127Z,86.12
2022-12-03T05:09:11.060Z,86.15
2022-12-03T05:10:11.067Z,86.19
2022-12-03T05:11:11.058Z,86.17
2022-12-03T05:12:11.059Z,86.27
2022-12-03T05:13:11.066Z,86.27
2022-12-03T05:14:11.057Z,86.29
2022-12-03T05:15:11.060Z,86.42
2022-12-03T05:16:11.128Z,86.37
2022-12-03T05:17:11.132Z,86.31
2022-12-03T05:18:11.052Z,86.25
2022-12-03T05:19:11.064Z,86.26
2022-12-03T05:20:15.054Z,86.40
2022-12-03T05:21:11.052Z,86.49
2022-12-03T05:22:11.058Z,86.27
2022-12-03T05:23:11.058Z,86.22
2022-12-03T05:24:11.052Z,86.33
2022-12-03T05:25:11.055Z,86.29
2022-12-03T05:26:11.057Z,86.43
2022-12-03T05:27:11.057Z,86.28
2022-12-03T05:28:11.056Z,86.29
2022-12-03T05:29:11.057Z,86.65
2022-12-03T05:30:11.055Z,86.85
2022-12-03T05:31:11.198Z,86.99
2022-12-03T05:32:11.063Z,87.13
2022-12-03T05:33:11.056Z,87.22
2022-12-03T05:34:11.056Z,87.20
2022-12-03T05:35:11.062Z,87.32
2022-12-03T05:36:11.058Z,87.30
2022-12-03T05:37:11.061Z,87.56
2022-12-03T05:38:11.059Z,87.41
2022-12-03T05:39:11.055Z,87.43
2022-12-03T05:40:11.059Z,87.47
2022-12-03T05:41:15.067Z,87.70
2022-12-03T05:42:15.057Z,87.90
2022-12-03T05:43:11.056Z,87.76
2022-12-03T05:44:12.443Z,87.86
2022-12-03T05:45:11.065Z,87.95
2022-12-03T05:46:11.107Z,87.93
2022-12-03T05:47:11.060Z,87.83
2022-12-03T05:48:11.064Z,87.89
2022-12-03T05:49:11.059Z,87.98
2022-12-03T05:50:11.063Z,87.96
2022-12-03T05:51:11.067Z,87.97
2022-12-03T05:52:11.094Z,87.96
2022-12-03T05:53:11.056Z,88.09
2022-12-03T05:54:11.063Z,87.97
2022-12-03T05:55:11.058Z,87.96
2022-12-03T05:56:11.059Z,87.92
2022-12-03T05:57:11.057Z,87.94
2022-12-03T05:58:11.061Z,88.04
2022-12-03T05:59:11.060Z,88.05
2022-12-03T06:00:20.061Z,88.14
2022-12-03T06:01:11.066Z,88.05
2022-12-03T06:02:11.113Z,87.91
2022-12-03T06:03:11.251Z,88.08
2022-12-03T06:04:11.068Z,88.17
2022-12-03T06:05:11.068Z,88.17
2022-12-03T06:06:11.056Z,88.04
2022-12-03T06:07:14.181Z,88.11
2022-12-03T06:08:11.113Z,88.14
2022-12-03T06:09:11.059Z,88.06
2022-12-03T06:10:11.075Z,87.97
2022-12-03T06:11:11.060Z,87.96
2022-12-03T06:12:11.056Z,87.91
2022-12-03T06:13:11.065Z,87.75
2022-12-03T06:14:11.061Z,87.78
2022-12-03T06:15:11.057Z,87.88
2022-12-03T06:16:11.094Z,87.87
2022-12-03T06:17:11.061Z,87.87
2022-12-03T06:18:11.060Z,87.88
2022-12-03T06:19:11.062Z,87.82
2022-12-03T06:20:15.060Z,87.84
2022-12-03T06:21:11.059Z,87.83
2022-12-03T06:22:11.060Z,87.87
2022-12-03T06:23:11.068Z,87.69
2022-12-03T06:24:11.059Z,87.61
2022-12-03T06:25:11.063Z,87.73
2022-12-03T06:26:11.069Z,87.65
2022-12-03T06:27:11.058Z,87.62
2022-12-03T06:28:11.063Z,87.60
2022-12-03T06:29:11.069Z,87.64
2022-12-03T06:30:11.059Z,87.66
2022-12-03T06:31:11.138Z,87.71
2022-12-03T06:32:11.068Z,87.83
2022-12-03T06:33:11.062Z,87.82
2022-12-03T06:34:11.065Z,87.59
2022-12-03T06:35:11.067Z,87.61
2022-12-03T06:36:11.062Z,87.56
2022-12-03T06:37:11.056Z,87.50
2022-12-03T06:38:11.062Z,87.45
2022-12-03T06:39:11.061Z,87.33
2022-12-03T06:40:11.063Z,87.27
2022-12-03T06:41:11.064Z,87.41
2022-12-03T06:42:11.064Z,87.31
2022-12-03T06:43:11.060Z,87.29
2022-12-03T06:44:11.062Z,87.21
2022-12-03T06:45:11.066Z,87.09
2022-12-03T06:46:11.141Z,87.08
2022-12-03T06:47:11.061Z,86.93
2022-12-03T06:48:11.063Z,86.83
2022-12-03T06:49:11.062Z,86.84
2022-12-03T06:50:11.060Z,86.76
2022-12-03T06:51:11.063Z,86.79
2022-12-03T06:52:11.059Z,86.75
2022-12-03T06:53:11.061Z,86.80
2022-12-03T06:54:11.074Z,86.75
2022-12-03T06:55:11.064Z,86.66
2022-12-03T06:56:11.067Z,86.53
2022-12-03T06:57:11.069Z,86.55
2022-12-03T06:58:11.061Z,86.57
2022-12-03T06:59:11.063Z,86.52
2022-12-03T07:00:11.070Z,86.41
2022-12-03T07:01:11.107Z,86.41
2022-12-03T07:02:11.124Z,86.45
2022-12-03T07:03:11.163Z,86.47
2022-12-03T07:04:11.060Z,86.45
2022-12-03T07:05:11.060Z,86.36
2022-12-03T07:06:11.073Z,86.41
2022-12-03T07:07:11.065Z,86.38
2022-12-03T07:08:11.124Z,86.42
2022-12-03T07:09:11.064Z,86.37
2022-12-03T07:10:11.063Z,86.27
2022-12-03T07:11:15.059Z,86.20
2022-12-03T07:12:11.065Z,86.20
2022-12-03T07:13:11.064Z,86.33
2022-12-03T07:14:11.115Z,86.20
2022-12-03T07:15:11.064Z,86.18
2022-12-03T07:16:11.112Z,85.98
2022-12-03T07:17:11.062Z,86.08
2022-12-03T07:18:11.067Z,86.12
2022-12-03T07:19:11.072Z,86.00
2022-12-03T07:20:11.064Z,86.07
2022-12-03T07:21:11.060Z,86.09
2022-12-03T07:22:11.066Z,86.17
2022-12-03T07:23:11.063Z,86.15
2022-12-03T07:24:11.064Z,86.17
2022-12-03T07:25:11.065Z,86.09
2022-12-03T07:26:11.064Z,86.09
2022-12-03T07:27:11.062Z,86.11
2022-12-03T07:28:11.062Z,86.20
2022-12-03T07:29:11.068Z,86.23
2022-12-03T07:30:11.060Z,86.25
2022-12-03T07:31:11.096Z,86.19
2022-12-03T07:32:11.073Z,86.30
2022-12-03T07:33:11.064Z,86.24
2022-12-03T07:34:11.064Z,86.31
2022-12-03T07:35:11.072Z,86.39
2022-12-03T07:36:11.067Z,86.36
2022-12-03T07:37:11.067Z,86.47
2022-12-03T07:38:11.072Z,86.43
2022-12-03T07:39:11.063Z,86.50
2022-12-03T07:40:11.067Z,86.50
2022-12-03T07:41:11.073Z,86.56
2022-12-03T07:42:11.063Z,86.63
2022-12-03T07:43:11.067Z,86.54
2022-12-03T07:44:14.595Z,86.75
2022-12-03T07:45:11.066Z,86.87
2022-12-03T07:46:11.125Z,86.65
2022-12-03T07:47:11.156Z,86.72
2022-12-03T07:48:11.066Z,86.77
2022-12-03T07:49:11.062Z,86.74
2022-12-03T07:50:11.074Z,86.84
2022-12-03T07:51:15.309Z,86.81
2022-12-03T07:52:11.061Z,86.96
2022-12-03T07:53:11.068Z,87.00
2022-12-03T07:54:11.065Z,87.06
2022-12-03T07:55:11.066Z,87.07
2022-12-03T07:56:11.070Z,87.13
2022-12-03T07:57:11.066Z,87.09
2022-12-03T07:58:11.069Z,87.07
2022-12-03T07:59:11.066Z,87.20
2022-12-03T08:00:11.068Z,87.29
2022-12-03T08:01:11.154Z,87.30
2022-12-03T08:02:11.189Z,87.42
2022-12-03T08:03:11.066Z,87.44
2022-12-03T08:04:11.065Z,87.62
2022-12-03T08:05:11.072Z,87.73
2022-12-03T08:06:11.068Z,87.59
2022-12-03T08:07:11.066Z,87.56
2022-12-03T08:08:11.119Z,87.61
2022-12-03T08:09:15.750Z,87.55
2022-12-03T08:10:13.087Z,87.78
2022-12-03T08:11:13.069Z,87.79
2022-12-03T08:12:19.066Z,87.82
2022-12-03T08:13:14.057Z,87.65
2022-12-03T08:14:14.057Z,87.76
2022-12-03T08:15:21.056Z,87.65
2022-12-03T08:16:18.189Z,87.50
2022-12-03T08:17:13.061Z,87.40
2022-12-03T08:18:16.056Z,87.32
2022-12-03T08:19:13.057Z,87.33
2022-12-03T08:20:16.068Z,87.54
2022-12-03T08:21:14.056Z,87.46
2022-12-03T08:22:15.057Z,87.47
2022-12-03T08:23:18.066Z,87.35
2022-12-03T08:24:15.059Z,87.34
2022-12-03T08:25:15.080Z,87.34
2022-12-03T08:26:21.061Z,87.23
2022-12-03T08:27:16.056Z,87.30
2022-12-03T08:28:18.061Z,87.21
2022-12-03T08:29:15.059Z,87.17
2022-12-03T08:30:13.059Z,87.15
2022-12-03T08:31:18.109Z,87.19
2022-12-03T08:32:12.126Z,87.08
2022-12-03T08:33:19.056Z,87.00
2022-12-03T08:34:20.064Z,87.01
2022-12-03T08:35:19.057Z,86.96
2022-12-03T08:36:21.070Z,86.87
2022-12-03T08:37:16.058Z,87.04
2022-12-03T08:38:12.058Z,86.91
2022-12-03T08:39:19.057Z,86.72
2022-12-03T08:40:19.071Z,86.66
2022-12-03T08:41:16.059Z,86.70
2022-12-03T08:42:21.077Z,86.78
2022-12-03T08:43:19.060Z,86.75
2022-12-03T08:44:19.071Z,86.65
2022-12-03T08:45:19.065Z,86.54
2022-12-03T08:46:17.160Z,86.46
2022-12-03T08:47:19.057Z,86.31
2022-12-03T08:48:19.062Z,86.38
2022-12-03T08:49:11.058Z,86.40
2022-12-03T08:50:19.060Z,86.11
2022-12-03T08:51:19.058Z,86.08
2022-12-03T08:52:19.062Z,85.95
2022-12-03T08:53:23.060Z,85.83
2022-12-03T08:54:17.067Z,85.73
2022-12-03T08:55:21.063Z,85.97
2022-12-03T08:56:20.057Z,86.05
2022-12-03T08:57:19.061Z,85.91
2022-12-03T08:58:19.062Z,85.81
2022-12-03T08:59:19.061Z,85.91
2022-12-03T09:00:19.057Z,85.82
2022-12-03T09:01:18.131Z,85.90
2022-12-03T09:02:18.059Z,85.96
2022-12-03T09:03:15.067Z,86.13
2022-12-03T09:04:19.095Z,86.08
2022-12-03T09:05:19.056Z,86.17
2022-12-03T09:06:11.060Z,86.14
2022-12-03T09:07:11.071Z,86.10
2022-12-03T09:08:11.112Z,86.16
2022-12-03T09:09:11.063Z,86.19
2022-12-03T09:10:11.074Z,86.13
2022-12-03T09:11:11.057Z,86.29
2022-12-03T09:12:11.061Z,86.26
2022-12-03T09:13:11.073Z,86.22
2022-12-03T09:14:16.710Z,86.24
2022-12-03T09:15:13.069Z,86.28
2022-12-03T09:16:11.081Z,86.23
2022-12-03T09:17:11.145Z,86.11
2022-12-03T09:18:11.058Z,86.16
2022-12-03T09:19:11.063Z,85.98
2022-12-03T09:20:11.062Z,86.09
2022-12-03T09:21:11.057Z,86.25
2022-12-03T09:22:11.063Z,86.12
2022-12-03T09:23:11.066Z,86.03
2022-12-03T09:24:11.058Z,85.94
2022-12-03T09:25:11.064Z,86.13
2022-12-03T09:26:11.062Z,86.17
2022-12-03T09:27:11.061Z,85.99
2022-12-03T09:28:11.062Z,85.96
2022-12-03T09:29:12.572Z,85.92
2022-12-03T09:30:11.064Z,85.83
2022-12-03T09:31:11.085Z,85.98
2022-12-03T09:32:16.635Z,85.86
2022-12-03T09:33:13.047Z,85.82
2022-12-03T09:34:11.062Z,85.90
2022-12-03T09:35:11.068Z,85.81
2022-12-03T09:36:11.060Z,85.71
2022-12-03T09:37:11.064Z,85.80
2022-12-03T09:38:11.070Z,85.96
2022-12-03T09:39:11.065Z,85.88
2022-12-03T09:40:11.058Z,85.94
2022-12-03T09:41:11.066Z,85.78
2022-12-03T09:42:11.062Z,85.74
2022-12-03T09:43:11.058Z,85.82
2022-12-03T09:44:17.556Z,85.86
2022-12-03T09:45:14.228Z,85.88
2022-12-03T09:46:11.101Z,85.81
2022-12-03T09:47:11.061Z,85.72
2022-12-03T09:48:11.102Z,85.73
2022-12-03T09:49:15.723Z,85.79
2022-12-03T09:50:18.061Z,85.72
2022-12-03T09:51:11.064Z,85.66
2022-12-03T09:52:11.062Z,85.58
2022-12-03T09:53:16.065Z,85.54
2022-12-03T09:54:16.065Z,85.46
2022-12-03T09:55:16.064Z,85.33
2022-12-03T09:56:15.065Z,85.30
2022-12-03T09:57:11.064Z,85.24
2022-12-03T09:58:15.071Z,85.02
2022-12-03T09:59:15.065Z,85.04
2022-12-03T10:00:20.062Z,84.96
2022-12-03T10:01:14.169Z,84.89
2022-12-03T10:02:21.071Z,84.86
2022-12-03T10:03:15.069Z,84.73
2022-12-03T10:04:11.114Z,84.78
2022-12-03T10:05:11.146Z,84.76
2022-12-03T10:06:13.073Z,84.54
2022-12-03T10:07:11.064Z,84.39
2022-12-03T10:08:11.147Z,84.40
2022-12-03T10:09:11.071Z,84.21
2022-12-03T10:10:15.066Z,84.21
2022-12-03T10:11:11.063Z,83.98
2022-12-03T10:12:12.063Z,84.04
2022-12-03T10:13:19.836Z,83.95
2022-12-03T10:14:15.231Z,83.74
2022-12-03T10:15:13.066Z,83.77
2022-12-03T10:16:11.165Z,83.44
2022-12-03T10:17:12.109Z,83.47
2022-12-03T10:18:19.065Z,83.42
2022-12-03T10:19:19.067Z,83.38
2022-12-03T10:20:12.072Z,83.26
2022-12-03T10:21:22.062Z,83.13
2022-12-03T10:22:11.065Z,83.03
2022-12-03T10:23:15.067Z,82.94
2022-12-03T10:24:21.084Z,82.87
2022-12-03T10:25:14.065Z,82.54
2022-12-03T10:26:11.066Z,82.54
2022-12-03T10:27:19.072Z,82.39
2022-12-03T10:28:11.066Z,82.28
2022-12-03T10:29:26.822Z,82.32
2022-12-03T10:30:20.087Z,82.12
2022-12-03T10:31:13.178Z,82.16
2022-12-03T10:32:11.073Z,82.20
2022-12-03T10:33:15.868Z,82.35
2022-12-03T10:34:13.047Z,82.14
2022-12-03T10:35:17.075Z,82.19
2022-12-03T10:36:18.070Z,81.88
2022-12-03T10:37:11.062Z,81.48
2022-12-03T10:38:21.065Z,81.61
2022-12-03T10:39:12.067Z,81.49
2022-12-03T10:40:14.066Z,81.56
2022-12-03T10:41:19.061Z,81.32
2022-12-03T10:42:16.074Z,81.25
2022-12-03T10:43:19.088Z,80.57
2022-12-03T10:44:23.067Z,81.18
2022-12-03T10:45:18.101Z,81.14
2022-12-03T10:46:16.220Z,80.93
2022-12-03T10:47:13.152Z,80.84
2022-12-03T10:48:19.068Z,80.86
2022-12-03T10:49:15.063Z,80.73
2022-12-03T10:50:16.065Z,80.64
2022-12-03T10:51:18.074Z,80.50
2022-12-03T10:52:25.298Z,80.58
2022-12-03T10:53:13.071Z,80.36
2022-12-03T10:54:19.072Z,80.40
2022-12-03T10:55:14.074Z,80.44
2022-12-03T10:56:19.069Z,80.24
2022-12-03T10:57:11.064Z,80.30
2022-12-03T10:58:19.068Z,79.98
2022-12-03T10:59:14.068Z,80.00
2022-12-03T11:00:16.069Z,79.90
2022-12-03T11:01:19.130Z,79.62
2022-12-03T11:02:19.069Z,79.75
2022-12-03T11:03:19.098Z,79.72
2022-12-03T11:04:19.069Z,79.88
2022-12-03T11:05:18.064Z,79.98
2022-12-03T11:06:17.066Z,79.62
2022-12-03T11:07:15.071Z,79.60
2022-12-03T11:08:19.173Z,79.38
2022-12-03T11:09:18.066Z,79.38
2022-12-03T11:10:17.272Z,79.40
2022-12-03T11:11:18.066Z,79.44
2022-12-03T11:12:18.066Z,79.38
2022-12-03T11:13:19.059Z,79.25
2022-12-03T11:14:11.054Z,79.33
2022-12-03T11:15:15.059Z,79.26
2022-12-03T11:16:11.145Z,79.20
2022-12-03T11:17:11.053Z,79.29
2022-12-03T11:18:11.060Z,79.30
2022-12-03T11:19:21.090Z,79.25
2022-12-03T11:20:22.605Z,79.11
2022-12-03T11:21:14.072Z,79.18
2022-12-03T11:22:19.060Z,79.01
2022-12-03T11:23:12.057Z,78.94
2022-12-03T11:24:16.073Z,78.94
2022-12-03T11:25:19.070Z,78.88
2022-12-03T11:26:15.600Z,78.87
2022-12-03T11:27:20.066Z,78.77
2022-12-03T11:28:19.061Z,78.72
2022-12-03T11:29:15.059Z,78.58
2022-12-03T11:30:11.059Z,78.70
2022-12-03T11:31:21.107Z,78.53
2022-12-03T11:32:11.066Z,78.77
2022-12-03T11:33:19.056Z,78.79
2022-12-03T11:34:21.112Z,78.49
2022-12-03T11:35:15.058Z,78.50
2022-12-03T11:36:11.060Z,78.47
2022-12-03T11:37:21.058Z,78.38
2022-12-03T11:38:19.062Z,78.35
2022-12-03T11:39:11.060Z,78.39
2022-12-03T11:40:19.058Z,78.27
2022-12-03T11:41:19.057Z,78.32
2022-12-03T11:42:19.062Z,78.42
2022-12-03T11:43:11.058Z,78.37
2022-12-03T11:44:19.063Z,78.39
2022-12-03T11:45:19.059Z,78.27
2022-12-03T11:46:11.103Z,78.40
2022-12-03T11:47:15.062Z,78.42
2022-12-03T11:48:14.063Z,78.47
2022-12-03T11:49:19.059Z,78.55
2022-12-03T11:50:19.059Z,78.43
2022-12-03T11:51:15.059Z,78.31
2022-12-03T11:52:19.059Z,78.39
2022-12-03T11:53:19.061Z,78.34
2022-12-03T11:54:18.077Z,78.29
2022-12-03T11:55:16.072Z,78.33
2022-12-03T11:56:20.060Z,78.28
2022-12-03T11:57:19.058Z,78.42
2022-12-03T11:58:22.063Z,78.29
2022-12-03T11:59:13.057Z,78.36
2022-12-03T12:00:19.067Z,78.39
2022-12-03T12:01:11.061Z,78.51
2022-12-03T12:02:19.060Z,78.54
2022-12-03T12:03:19.171Z,78.52
2022-12-03T12:04:19.115Z,78.65
2022-12-03T12:05:19.061Z,78.64
2022-12-03T12:06:13.062Z,78.76
2022-12-03T12:07:11.058Z,78.76
2022-12-03T12:08:18.172Z,78.77
2022-12-03T12:09:11.063Z,78.84
2022-12-03T12:10:11.060Z,78.86
2022-12-03T12:11:19.064Z,79.12
2022-12-03T12:12:17.063Z,79.06
2022-12-03T12:13:19.059Z,79.12
2022-12-03T12:14:11.059Z,79.23
2022-12-03T12:15:19.070Z,79.39
2022-12-03T12:16:11.124Z,79.31
2022-12-03T12:17:22.059Z,79.29
2022-12-03T12:18:19.058Z,79.67
2022-12-03T12:19:19.066Z,79.51
2022-12-03T12:20:18.070Z,79.38
2022-12-03T12:21:19.063Z,79.58
2022-12-03T12:22:19.062Z,79.66
2022-12-03T12:23:19.065Z,79.62
2022-12-03T12:24:19.063Z,79.64
2022-12-03T12:25:19.063Z,79.52
2022-12-03T12:26:11.062Z,79.52
2022-12-03T12:27:17.077Z,79.53
2022-12-03T12:28:11.066Z,79.56
2022-12-03T12:29:11.063Z,79.50
2022-12-03T12:30:14.086Z,79.44
2022-12-03T12:31:13.136Z,79.43
2022-12-03T12:32:17.065Z,79.30
2022-12-03T12:33:21.074Z,79.36
2022-12-03T12:34:13.062Z,79.38
2022-12-03T12:35:19.066Z,79.31
2022-12-03T12:36:11.070Z,79.31
2022-12-03T12:37:22.059Z,79.34
2022-12-03T12:38:20.070Z,79.22
2022-12-03T12:39:15.064Z,79.19
2022-12-03T12:40:15.070Z,79.18
2022-12-03T12:41:11.063Z,79.29
2022-12-03T12:42:19.079Z,79.45
2022-12-03T12:43:24.053Z,79.37
2022-12-03T12:44:13.067Z,79.30
2022-12-03T12:45:19.065Z,79.03
2022-12-03T12:46:39.056Z,79.13
2022-12-03T12:47:15.821Z,78.92
2022-12-03T12:48:19.064Z,79.00
2022-12-03T12:49:12.070Z,78.82
2022-12-03T12:50:13.136Z,78.93
2022-12-03T12:51:13.062Z,78.98
2022-12-03T12:52:13.097Z,78.78
2022-12-03T12:53:17.071Z,78.93